Time;durP1;ratioP1;P1;durP2;ratioP2;P2;SDS_P1;SDS_P2;PMS_P1;PMS_P2;Temp;Humidity;BMP_temperature;BMP_pressure;BME280_temperature;BME280_humidity;BME280_pressure;Samples;Min_cycle;Max_cycle;Signal;HPM_P1;HPM_P2
2021/03/22 00:00:51;;;;;;;;;;;15.30;58.70;;;;;;5032559;28;20003;-77
2021/03/22 00:03:18;;;;;;;;;;;15.30;58.70;;;;;;5033806;28;20349;-76
2021/03/22 00:05:43;;;;;;;;;;;15.20;58.70;;;;;;5048256;28;19923;-74
2021/03/22 00:08:09;;;;;;;;;;;15.20;58.70;;;;;;5044165;28;19917;-77
2021/03/22 00:10:35;;;;;;;;;;;15.30;58.70;;;;;;5024044;28;19956;-74
2021/03/22 00:13:01;;;;;;;;;;;15.30;58.70;;;;;;5048830;28;20321;-76
2021/03/22 00:15:29;;;;;;;;;;;15.30;58.70;;;;;;5033921;28;19927;-75
2021/03/22 00:17:54;;;;;;;;;;;15.30;58.80;;;;;;5037856;28;19959;-74
2021/03/22 00:20:20;;;;;;;;;;;15.20;58.80;;;;;;5048514;28;19964;-74
2021/03/22 00:22:45;;;;;;;;;;;15.20;58.80;;;;;;5035423;28;19914;-74
2021/03/22 00:25:11;;;;;;;;;;;15.20;58.80;;;;;;5027620;28;19921;-76
2021/03/22 00:27:37;;;;;;;;;;;15.30;58.80;;;;;;5051034;28;20282;-77
2021/03/22 00:30:04;;;;;;;;;;;15.20;58.90;;;;;;5040029;28;19919;-76
2021/03/22 00:32:29;;;;;;;;;;;15.20;58.90;;;;;;5037484;28;19956;-74
2021/03/22 00:34:55;;;;;;;;;;;15.20;58.90;;;;;;5021220;28;19996;-73
2021/03/22 00:37:20;;;;;;;;;;;15.20;58.90;;;;;;5039558;28;20015;-74
2021/03/22 00:39:46;;;;;;;;;;;15.20;58.90;;;;;;5039777;28;19935;-76
2021/03/22 00:42:11;;;;;;;;;;;15.30;58.90;;;;;;5047319;28;20372;-74
2021/03/22 00:44:37;;;;;;;;;;;15.20;58.90;;;;;;5032813;28;19931;-75
2021/03/22 00:47:02;;;;;;;;;;;15.30;58.90;;;;;;5055546;28;20031;-76
2021/03/22 00:49:28;;;;;;;;;;;15.20;58.90;;;;;;5064106;28;20377;-74
2021/03/22 00:51:53;;;;;;;;;;;15.30;58.90;;;;;;5045271;28;19924;-74
2021/03/22 00:54:19;;;;;;;;;;;15.20;58.90;;;;;;5046317;28;19913;-74
2021/03/22 00:56:44;;;;;;;;;;;15.30;58.90;;;;;;5047050;28;20007;-73
2021/03/22 00:59:10;;;;;;;;;;;15.20;59.00;;;;;;5032489;28;19913;-74
2021/03/22 01:01:36;;;;;;;;;;;15.20;59.00;;;;;;5047604;28;20380;-74
2021/03/22 01:04:02;;;;;;;;;;;15.20;59.00;;;;;;5043662;28;20381;-77
2021/03/22 01:06:27;;;;;;;;;;;15.20;59.00;;;;;;5053235;28;20023;-74
2021/03/22 01:08:53;;;;;;;;;;;15.20;59.00;;;;;;5047738;28;19939;-74
2021/03/22 01:11:20;;;;;;;;;;;15.20;59.00;;;;;;5035893;28;19913;-76
2021/03/22 01:13:47;;;;;;;;;;;15.20;59.00;;;;;;5048479;28;19935;-73
2021/03/22 01:16:13;;;;;;;;;;;15.20;59.00;;;;;;5030486;28;20055;-74
2021/03/22 01:18:40;;;;;;;;;;;15.20;59.00;;;;;;5036199;28;20356;-73
2021/03/22 01:21:08;;;;;;;;;;;15.20;59.00;;;;;;5032296;28;19924;-76
2021/03/22 01:23:34;;;;;;;;;;;15.30;59.00;;;;;;5051072;28;19913;-73
2021/03/22 01:26:00;;;;;;;;;;;15.20;59.00;;;;;;5043574;28;19970;-73
2021/03/22 01:28:25;;;;;;;;;;;15.20;59.00;;;;;;5025970;28;19917;-74
2021/03/22 01:30:53;;;;;;;;;;;15.20;59.00;;;;;;5049981;28;19913;-73
2021/03/22 01:33:22;;;;;;;;;;;15.20;59.10;;;;;;5035007;28;20016;-73
2021/03/22 01:35:48;;;;;;;;;;;15.20;59.10;;;;;;5037403;28;20400;-76
2021/03/22 01:38:13;;;;;;;;;;;15.20;59.10;;;;;;5057688;28;19920;-74
2021/03/22 01:40:45;;;;;;;;;;;15.20;59.10;;;;;;5036164;28;19932;-75
2021/03/22 01:43:17;;;;;;;;;;;15.20;59.10;;;;;;5042257;28;19924;-72
2021/03/22 01:45:43;;;;;;;;;;;15.20;59.10;;;;;;5024884;28;20350;-73
2021/03/22 01:48:08;;;;;;;;;;;15.20;59.10;;;;;;5050929;28;19927;-72
2021/03/22 01:50:34;;;;;;;;;;;15.20;59.10;;;;;;5051766;28;19925;-72
2021/03/22 01:53:00;;;;;;;;;;;15.20;59.10;;;;;;5053987;28;20003;-72
2021/03/22 01:55:28;;;;;;;;;;;15.20;59.10;;;;;;5036032;28;20329;-72
2021/03/22 01:57:53;;;;;;;;;;;15.20;59.10;;;;;;5035108;28;19919;-72
2021/03/22 02:00:34;;;;;;;;;;;15.20;59.10;;;;;;5045168;28;19913;-72
2021/03/22 02:03:08;;;;;;;;;;;15.10;59.10;;;;;;5058437;28;20248;-71
2021/03/22 02:05:35;;;;;;;;;;;15.20;59.10;;;;;;5031175;28;19924;-71
2021/03/22 02:08:12;;;;;;;;;;;15.20;59.20;;;;;;5035018;28;19961;-72
2021/03/22 02:10:38;;;;;;;;;;;15.20;59.20;;;;;;5031768;28;19913;-72
2021/03/22 02:13:04;;;;;;;;;;;15.20;59.20;;;;;;5051030;28;20313;-72
2021/03/22 02:15:30;;;;;;;;;;;15.20;59.20;;;;;;5028644;28;20004;-72
2021/03/22 02:18:13;;;;;;;;;;;15.20;59.20;;;;;;5050835;28;19925;-72
2021/03/22 02:20:53;;;;;;;;;;;15.20;59.20;;;;;;5033280;28;19923;-72
2021/03/22 02:23:38;;;;;;;;;;;15.20;59.20;;;;;;5057626;28;20000;-72
2021/03/22 02:26:41;;;;;;;;;;;15.20;59.20;;;;;;5043648;28;19924;-73
2021/03/22 02:29:19;;;;;;;;;;;15.20;59.20;;;;;;4994302;28;19918;-72
2021/03/22 02:32:09;;;;;;;;;;;15.20;59.20;;;;;;4987473;28;20020;-72
2021/03/22 02:34:56;;;;;;;;;;;15.20;59.20;;;;;;5024585;28;19923;-72
2021/03/22 02:37:25;;;;;;;;;;;15.20;59.20;;;;;;5045579;28;19913;-72
2021/03/22 02:40:09;;;;;;;;;;;15.20;59.20;;;;;;5033304;28;19928;-72
2021/03/22 02:42:37;;;;;;;;;;;15.20;59.30;;;;;;5031606;28;19963;-72
2021/03/22 02:45:04;;;;;;;;;;;15.20;59.20;;;;;;5050217;28;19917;-74
2021/03/22 02:47:32;;;;;;;;;;;15.20;59.20;;;;;;5050243;28;19928;-72
2021/03/22 02:49:59;;;;;;;;;;;15.20;59.20;;;;;;5042254;28;20374;-73
2021/03/22 02:52:27;;;;;;;;;;;15.20;59.30;;;;;;5022815;28;20366;-72
2021/03/22 02:54:53;;;;;;;;;;;15.20;59.20;;;;;;5049590;28;19963;-72
2021/03/22 02:57:23;;;;;;;;;;;15.20;59.30;;;;;;5042918;28;19960;-72
2021/03/22 02:59:51;;;;;;;;;;;15.20;59.30;;;;;;5034438;28;19921;-73
2021/03/22 03:02:17;;;;;;;;;;;15.20;59.30;;;;;;5038112;28;19917;-74
2021/03/22 03:04:43;;;;;;;;;;;15.20;59.30;;;;;;5032707;28;19978;-72
2021/03/22 03:07:11;;;;;;;;;;;15.20;59.30;;;;;;5024583;28;20433;-72
2021/03/22 03:09:38;;;;;;;;;;;15.20;59.30;;;;;;5026469;28;19913;-72
2021/03/22 03:12:09;;;;;;;;;;;15.20;59.30;;;;;;5030348;28;19972;-72
2021/03/22 03:14:35;;;;;;;;;;;15.20;59.30;;;;;;5022143;28;19988;-72
2021/03/22 03:17:00;;;;;;;;;;;15.20;59.30;;;;;;5041897;28;19916;-72
2021/03/22 03:19:26;;;;;;;;;;;15.20;59.30;;;;;;5042294;28;19919;-72
2021/03/22 03:21:51;;;;;;;;;;;15.20;59.30;;;;;;5044187;28;19972;-72
2021/03/22 03:24:17;;;;;;;;;;;15.20;59.30;;;;;;5054908;28;19916;-74
2021/03/22 03:26:42;;;;;;;;;;;15.20;59.30;;;;;;5037834;28;19971;-74
2021/03/22 03:29:08;;;;;;;;;;;15.20;59.30;;;;;;5025855;28;19920;-72
2021/03/22 03:31:34;;;;;;;;;;;15.10;59.30;;;;;;5025439;28;19913;-72
2021/03/22 03:34:00;;;;;;;;;;;15.20;59.30;;;;;;5025202;28;19935;-73
2021/03/22 03:36:25;;;;;;;;;;;15.20;59.40;;;;;;5043058;28;20366;-74
2021/03/22 03:38:51;;;;;;;;;;;15.10;59.40;;;;;;5048798;28;19960;-72
2021/03/22 03:41:16;;;;;;;;;;;15.20;59.40;;;;;;5038243;28;19920;-75
2021/03/22 03:43:42;;;;;;;;;;;15.20;59.40;;;;;;5049066;28;19920;-72
2021/03/22 03:46:07;;;;;;;;;;;15.10;59.40;;;;;;5046789;28;19925;-72
2021/03/22 03:48:33;;;;;;;;;;;15.20;59.40;;;;;;5044010;28;20286;-72
2021/03/22 03:51:00;;;;;;;;;;;15.20;59.40;;;;;;5065655;28;19965;-72
2021/03/22 03:53:26;;;;;;;;;;;15.20;59.40;;;;;;5051796;28;20417;-72
2021/03/22 03:55:52;;;;;;;;;;;15.10;59.40;;;;;;5029606;28;19921;-73
2021/03/22 03:58:18;;;;;;;;;;;15.20;59.40;;;;;;5031760;28;19928;-73
2021/03/22 04:00:45;;;;;;;;;;;15.10;59.40;;;;;;5049145;28;20333;-73
2021/03/22 04:03:18;;;;;;;;;;;15.20;59.40;;;;;;5050539;28;19921;-73
2021/03/22 04:05:44;;;;;;;;;;;15.20;59.40;;;;;;5033220;28;20436;-73
2021/03/22 04:08:10;;;;;;;;;;;15.20;59.40;;;;;;5041429;28;19917;-72
2021/03/22 04:10:36;;;;;;;;;;;15.20;59.40;;;;;;5034106;28;20008;-74
2021/03/22 04:13:01;;;;;;;;;;;15.20;59.40;;;;;;5017270;28;19943;-76
2021/03/22 04:15:27;;;;;;;;;;;15.20;59.40;;;;;;5033146;28;19913;-74
2021/03/22 04:17:52;;;;;;;;;;;15.20;59.40;;;;;;5058327;28;19960;-73
2021/03/22 04:20:18;;;;;;;;;;;15.20;59.40;;;;;;5056263;28;20453;-74
2021/03/22 04:22:44;;;;;;;;;;;15.20;59.40;;;;;;5020479;28;20020;-74
2021/03/22 04:25:09;;;;;;;;;;;15.10;59.40;;;;;;5037131;28;19920;-75
2021/03/22 04:27:35;;;;;;;;;;;15.10;59.50;;;;;;5044245;28;19928;-74
2021/03/22 04:30:01;;;;;;;;;;;15.20;59.50;;;;;;5036415;28;19920;-77
2021/03/22 04:32:27;;;;;;;;;;;15.20;59.50;;;;;;5027662;28;19956;-73
2021/03/22 04:34:52;;;;;;;;;;;15.20;59.50;;;;;;5053022;28;19975;-76
2021/03/22 04:37:17;;;;;;;;;;;15.20;59.50;;;;;;5043342;28;20350;-75
2021/03/22 04:39:44;;;;;;;;;;;15.20;59.40;;;;;;5030997;28;19921;-74
2021/03/22 04:42:10;;;;;;;;;;;15.20;59.40;;;;;;5030220;28;19928;-73
2021/03/22 04:44:35;;;;;;;;;;;15.20;59.50;;;;;;5051277;28;20003;-74
2021/03/22 04:47:01;;;;;;;;;;;15.20;59.40;;;;;;5041209;28;19920;-78
2021/03/22 04:49:26;;;;;;;;;;;15.20;59.50;;;;;;5032684;28;20011;-74
2021/03/22 04:51:52;;;;;;;;;;;15.20;59.50;;;;;;5048662;28;19971;-74
2021/03/22 04:54:17;;;;;;;;;;;15.20;59.50;;;;;;5066533;28;20011;-74
2021/03/22 04:56:43;;;;;;;;;;;15.20;59.50;;;;;;5050791;28;19909;-74
2021/03/22 04:59:08;;;;;;;;;;;15.20;59.50;;;;;;5053246;28;19917;-74
2021/03/22 05:01:34;;;;;;;;;;;15.20;59.50;;;;;;5032611;28;19924;-74
2021/03/22 05:03:59;;;;;;;;;;;15.20;59.50;;;;;;5056773;28;19909;-75
2021/03/22 05:06:25;;;;;;;;;;;15.20;59.50;;;;;;5065633;28;19921;-74
2021/03/22 05:08:50;;;;;;;;;;;15.20;59.50;;;;;;5040711;28;19920;-74
2021/03/22 05:11:18;;;;;;;;;;;15.20;59.50;;;;;;5033177;28;20374;-74
2021/03/22 05:13:44;;;;;;;;;;;15.20;59.50;;;;;;5043662;28;20355;-74
2021/03/22 05:16:12;;;;;;;;;;;15.20;59.50;;;;;;5048629;28;19917;-74
2021/03/22 05:18:37;;;;;;;;;;;15.20;59.50;;;;;;5035619;28;20040;-73
2021/03/22 05:21:04;;;;;;;;;;;15.20;59.50;;;;;;5057852;28;20016;-75
2021/03/22 05:23:32;;;;;;;;;;;15.10;59.50;;;;;;5051285;28;19913;-74
2021/03/22 05:25:58;;;;;;;;;;;15.20;59.50;;;;;;5048681;28;19920;-74
2021/03/22 05:28:25;;;;;;;;;;;15.20;59.50;;;;;;5032851;28;19939;-73
2021/03/22 05:30:51;;;;;;;;;;;15.10;59.50;;;;;;5025915;28;19921;-74
2021/03/22 05:33:17;;;;;;;;;;;15.20;59.50;;;;;;5035648;28;20281;-74
2021/03/22 05:35:44;;;;;;;;;;;15.20;59.50;;;;;;5035040;28;20011;-74
2021/03/22 05:38:09;;;;;;;;;;;15.20;59.50;;;;;;5060454;28;19912;-74
2021/03/22 05:40:38;;;;;;;;;;;15.20;59.50;;;;;;5028467;28;20015;-74
2021/03/22 05:43:22;;;;;;;;;;;15.20;59.50;;;;;;5061286;28;20287;-74
2021/03/22 05:45:57;;;;;;;;;;;15.20;59.50;;;;;;5045436;28;20043;-75
2021/03/22 05:48:26;;;;;;;;;;;15.20;59.50;;;;;;5048743;28;20035;-74
2021/03/22 05:50:57;;;;;;;;;;;15.20;59.50;;;;;;5044114;28;19912;-76
2021/03/22 05:53:33;;;;;;;;;;;15.20;59.50;;;;;;5047615;28;20287;-74
2021/03/22 05:56:00;;;;;;;;;;;15.20;59.40;;;;;;5046173;28;20107;-75
2021/03/22 05:58:38;;;;;;;;;;;15.20;59.50;;;;;;5018416;28;19952;-74
2021/03/22 06:01:24;;;;;;;;;;;15.20;59.50;;;;;;5035976;28;20431;-75
2021/03/22 06:03:51;;;;;;;;;;;15.20;59.50;;;;;;5030836;28;20274;-74
2021/03/22 06:06:21;;;;;;;;;;;15.20;59.40;;;;;;5026529;28;19921;-76
2021/03/22 06:08:55;;;;;;;;;;;15.20;59.40;;;;;;5039850;28;20317;-75
2021/03/22 06:11:33;;;;;;;;;;;15.20;59.40;;;;;;5033165;28;19948;-74
2021/03/22 06:14:03;;;;;;;;;;;15.20;59.40;;;;;;5035342;28;19925;-74
2021/03/22 06:16:28;;;;;;;;;;;15.20;59.40;;;;;;5032428;28;19951;-74
2021/03/22 06:18:59;;;;;;;;;;;15.20;59.40;;;;;;5043035;28;19948;-73
2021/03/22 06:21:26;;;;;;;;;;;15.20;59.40;;;;;;5020669;28;20385;-72
2021/03/22 06:23:51;;;;;;;;;;;15.20;59.40;;;;;;5057916;28;20297;-74
2021/03/22 06:26:38;;;;;;;;;;;15.20;59.40;;;;;;5045947;28;19921;-77
2021/03/22 06:29:26;;;;;;;;;;;15.20;59.30;;;;;;5025600;28;20325;-74
2021/03/22 06:31:53;;;;;;;;;;;15.30;59.30;;;;;;5038318;28;20011;-73
2021/03/22 06:34:21;;;;;;;;;;;15.20;59.30;;;;;;5017627;28;20019;-74
2021/03/22 06:36:46;;;;;;;;;;;15.20;59.30;;;;;;5040089;28;19975;-74
2021/03/22 06:39:12;;;;;;;;;;;15.30;59.30;;;;;;5032286;28;20290;-74
2021/03/22 06:41:51;;;;;;;;;;;15.30;59.30;;;;;;5032712;28;19917;-73
2021/03/22 06:44:20;;;;;;;;;;;15.30;59.30;;;;;;5019816;28;19913;-76
2021/03/22 06:46:52;;;;;;;;;;;15.30;59.20;;;;;;5024439;28;19924;-74
2021/03/22 06:49:22;;;;;;;;;;;15.30;59.20;;;;;;5048042;28;19975;-75
2021/03/22 06:52:00;;;;;;;;;;;15.20;59.30;;;;;;5049868;28;19927;-75
2021/03/22 06:54:34;;;;;;;;;;;15.30;59.30;;;;;;5034160;28;19913;-74
2021/03/22 06:57:11;;;;;;;;;;;15.30;59.30;;;;;;5021630;28;19913;-74
2021/03/22 06:59:37;;;;;;;;;;;15.30;59.30;;;;;;5059267;28;19912;-74
2021/03/22 07:02:23;;;;;;;;;;;15.30;59.20;;;;;;5031982;28;20320;-74
2021/03/22 07:04:49;;;;;;;;;;;15.30;59.20;;;;;;5023259;28;19923;-74
2021/03/22 07:07:22;;;;;;;;;;;15.30;59.20;;;;;;5038173;28;19917;-74
2021/03/22 07:09:47;;;;;;;;;;;15.30;59.30;;;;;;5036853;28;19921;-75
2021/03/22 07:12:25;;;;;;;;;;;15.30;59.30;;;;;;5052430;28;20313;-76
2021/03/22 07:14:51;;;;;;;;;;;15.30;59.20;;;;;;5044684;28;19945;-74
2021/03/22 07:17:19;;;;;;;;;;;15.30;59.30;;;;;;5047744;28;19959;-76
2021/03/22 07:20:03;;;;;;;;;;;15.30;59.30;;;;;;5044486;28;19917;-74
2021/03/22 07:22:29;;;;;;;;;;;15.30;59.20;;;;;;5066852;28;19921;-73
2021/03/22 07:25:00;;;;;;;;;;;15.30;59.20;;;;;;5031352;28;19924;-74
2021/03/22 07:27:32;;;;;;;;;;;15.30;59.20;;;;;;5045084;28;19964;-74
2021/03/22 07:30:00;;;;;;;;;;;15.30;59.20;;;;;;5031030;28;19963;-74
2021/03/22 07:32:47;;;;;;;;;;;15.30;59.20;;;;;;5054759;28;19951;-74
2021/03/22 07:35:31;;;;;;;;;;;15.30;59.20;;;;;;5048599;28;19921;-74
2021/03/22 07:38:13;;;;;;;;;;;15.30;59.10;;;;;;5061832;28;19913;-74
2021/03/22 07:40:53;;;;;;;;;;;15.30;59.10;;;;;;5026425;28;20327;-74
2021/03/22 07:43:37;;;;;;;;;;;15.30;59.00;;;;;;5042025;28;19924;-74
2021/03/22 07:46:22;;;;;;;;;;;15.40;59.00;;;;;;5052884;28;19916;-74
2021/03/22 07:49:05;;;;;;;;;;;15.40;58.90;;;;;;5067660;28;19917;-74
2021/03/22 07:51:48;;;;;;;;;;;15.40;58.80;;;;;;5062168;28;19928;-74
2021/03/22 07:54:23;;;;;;;;;;;15.50;58.70;;;;;;5037278;28;19913;-74
2021/03/22 07:56:53;;;;;;;;;;;15.50;58.70;;;;;;5053137;28;20442;-75
2021/03/22 07:59:19;;;;;;;;;;;15.50;58.70;;;;;;5020408;28;19921;-74
2021/03/22 08:01:53;;;;;;;;;;;15.40;58.70;;;;;;5039525;28;19921;-74
2021/03/22 08:04:37;;;;;;;;;;;15.50;58.70;;;;;;5045531;28;19917;-74
2021/03/22 08:07:16;;;;;;;;;;;15.50;58.70;;;;;;5058277;28;20023;-74
2021/03/22 08:10:01;;;;;;;;;;;15.50;58.60;;;;;;5046491;28;19936;-74
2021/03/22 08:12:33;;;;;;;;;;;15.50;58.60;;;;;;5048340;28;19914;-74
2021/03/22 08:15:05;;;;;;;;;;;15.50;58.50;;;;;;5038305;28;20378;-74
2021/03/22 08:17:43;;;;;;;;;;;15.50;58.50;;;;;;5026329;28;19924;-73
2021/03/22 08:20:18;;;;;;;;;;;15.50;58.50;;;;;;5044175;28;19967;-74
2021/03/22 08:22:50;;;;;;;;;;;15.60;58.50;;;;;;5044535;28;19913;-75
2021/03/22 08:25:18;;;;;;;;;;;15.60;58.40;;;;;;5049614;28;20321;-75
2021/03/22 08:27:47;;;;;;;;;;;15.50;58.40;;;;;;5059754;28;19917;-74
2021/03/22 08:30:31;;;;;;;;;;;15.60;58.40;;;;;;5047880;28;20264;-75
2021/03/22 08:33:00;;;;;;;;;;;15.60;58.40;;;;;;5070059;28;20017;-73
2021/03/22 08:35:29;;;;;;;;;;;15.60;58.40;;;;;;5054160;28;19917;-74
2021/03/22 08:37:59;;;;;;;;;;;15.60;58.40;;;;;;5062452;28;19974;-75
2021/03/22 08:40:30;;;;;;;;;;;15.60;58.40;;;;;;5039517;28;19932;-75
2021/03/22 08:43:00;;;;;;;;;;;15.60;58.40;;;;;;5043002;28;19920;-74
2021/03/22 08:45:32;;;;;;;;;;;15.60;58.30;;;;;;5029575;28;19927;-74
2021/03/22 08:48:10;;;;;;;;;;;15.60;58.40;;;;;;5046465;28;19917;-74
2021/03/22 08:50:37;;;;;;;;;;;15.60;58.40;;;;;;5052796;28;19963;-74
2021/03/22 08:53:04;;;;;;;;;;;15.60;58.40;;;;;;5021188;28;19921;-75
2021/03/22 08:55:39;;;;;;;;;;;15.60;58.40;;;;;;5025705;28;20378;-77
2021/03/22 08:58:16;;;;;;;;;;;15.60;58.40;;;;;;5032199;28;19913;-74
2021/03/22 09:00:43;;;;;;;;;;;15.60;58.40;;;;;;5031854;28;19966;-73
2021/03/22 09:03:21;;;;;;;;;;;15.60;58.20;;;;;;5022742;28;19958;-73
2021/03/22 09:06:07;;;;;;;;;;;15.70;58.20;;;;;;5027013;28;19917;-73
2021/03/22 09:08:38;;;;;;;;;;;15.70;58.20;;;;;;5041014;28;19927;-73
2021/03/22 09:11:25;;;;;;;;;;;15.70;58.00;;;;;;5027362;28;19978;-73
2021/03/22 09:13:50;;;;;;;;;;;15.80;57.90;;;;;;5023766;28;20310;-73
2021/03/22 09:16:22;;;;;;;;;;;15.80;58.00;;;;;;5055398;28;20323;-77
2021/03/22 09:19:06;;;;;;;;;;;15.70;58.10;;;;;;5053971;28;20358;-75
2021/03/22 09:21:32;;;;;;;;;;;15.60;58.20;;;;;;5060494;28;19913;-73
2021/03/22 09:23:58;;;;;;;;;;;15.60;58.30;;;;;;5025082;28;20289;-74
2021/03/22 09:26:42;;;;;;;;;;;15.60;58.30;;;;;;5032913;28;19932;-75
2021/03/22 09:29:26;;;;;;;;;;;15.60;58.40;;;;;;5050801;28;19917;-73
2021/03/22 09:31:52;;;;;;;;;;;15.60;58.40;;;;;;5042708;28;19920;-73
2021/03/22 09:34:17;;;;;;;;;;;15.60;58.40;;;;;;5052546;28;19913;-73
2021/03/22 09:36:46;;;;;;;;;;;15.60;58.50;;;;;;5059688;28;19913;-73
2021/03/22 09:39:12;;;;;;;;;;;15.60;58.50;;;;;;5034431;28;19913;-73
2021/03/22 09:41:56;;;;;;;;;;;15.50;58.60;;;;;;5046500;28;20220;-75
2021/03/22 09:44:25;;;;;;;;;;;15.50;58.50;;;;;;5049400;28;19913;-73
2021/03/22 09:47:03;;;;;;;;;;;15.60;58.50;;;;;;5028401;28;20000;-73
2021/03/22 09:49:29;;;;;;;;;;;15.60;58.40;;;;;;5040161;28;19927;-73
2021/03/22 09:52:01;;;;;;;;;;;15.60;58.40;;;;;;5043820;28;19987;-73
2021/03/22 09:54:31;;;;;;;;;;;15.70;58.20;;;;;;5047088;28;19948;-73
2021/03/22 09:57:15;;;;;;;;;;;15.70;58.20;;;;;;5046620;28;19913;-74
2021/03/22 09:59:59;;;;;;;;;;;15.70;58.10;;;;;;5044538;28;20008;-77
2021/03/22 10:02:27;;;;;;;;;;;15.70;58.10;;;;;;5047780;28;20326;-75
2021/03/22 10:05:10;;;;;;;;;;;15.80;58.00;;;;;;5039484;28;20014;-75
2021/03/22 10:07:38;;;;;;;;;;;15.80;57.90;;;;;;5053901;28;20400;-74
2021/03/22 10:10:36;;;;;;;;;;;15.80;57.80;;;;;;5028999;28;19963;-71
2021/03/22 10:13:06;;;;;;;;;;;15.80;57.80;;;;;;4999458;28;19967;-72
2021/03/22 10:15:34;;;;;;;;;;;15.80;57.70;;;;;;5051985;28;19940;-74
2021/03/22 10:18:02;;;;;;;;;;;15.80;57.60;;;;;;5051417;28;19916;-74
2021/03/22 10:20:37;;;;;;;;;;;15.80;57.60;;;;;;5049400;28;19920;-74
2021/03/22 10:23:26;;;;;;;;;;;15.80;57.50;;;;;;5031670;28;20390;-75
2021/03/22 10:26:00;;;;;;;;;;;15.80;57.50;;;;;;5043467;28;19916;-75
2021/03/22 10:28:25;;;;;;;;;;;15.90;57.50;;;;;;5018226;28;19927;-76
2021/03/22 10:30:52;;;;;;;;;;;15.80;57.50;;;;;;5046938;28;19939;-75
2021/03/22 10:33:18;;;;;;;;;;;15.90;57.50;;;;;;5026108;28;19988;-75
2021/03/22 10:35:45;;;;;;;;;;;15.80;57.60;;;;;;5034926;28;19957;-75
2021/03/22 10:38:19;;;;;;;;;;;15.80;57.70;;;;;;5052641;28;19991;-76
2021/03/22 10:40:44;;;;;;;;;;;15.80;57.90;;;;;;5022555;28;19935;-77
2021/03/22 10:43:24;;;;;;;;;;;15.70;58.00;;;;;;5042785;28;19921;-74
2021/03/22 10:45:52;;;;;;;;;;;15.70;58.10;;;;;;5042385;28;20378;-75
2021/03/22 10:48:18;;;;;;;;;;;15.70;58.00;;;;;;5070630;28;19970;-76
2021/03/22 10:50:44;;;;;;;;;;;15.70;58.00;;;;;;5042635;28;19913;-75
2021/03/22 10:53:14;;;;;;;;;;;15.80;58.00;;;;;;5043099;28;19920;-75
2021/03/22 10:55:44;;;;;;;;;;;15.70;58.00;;;;;;5046322;28;19913;-75
2021/03/22 10:58:12;;;;;;;;;;;15.70;58.10;;;;;;5043864;28;19955;-76
2021/03/22 11:00:45;;;;;;;;;;;15.70;58.00;;;;;;5017615;28;20386;-75
2021/03/22 11:03:18;;;;;;;;;;;15.70;58.10;;;;;;5037026;28;20003;-75
2021/03/22 11:05:44;;;;;;;;;;;15.70;58.10;;;;;;5020848;28;19923;-77
2021/03/22 11:08:27;;;;;;;;;;;15.80;58.00;;;;;;5047477;28;20015;-75
2021/03/22 11:11:13;;;;;;;;;;;15.80;57.90;;;;;;5056613;28;20033;-76
2021/03/22 11:13:40;;;;;;;;;;;15.80;57.80;;;;;;5040091;28;20275;-75
2021/03/22 11:16:07;;;;;;;;;;;15.80;57.70;;;;;;5020429;28;19952;-76
2021/03/22 11:18:34;;;;;;;;;;;15.90;57.60;;;;;;5056250;28;20007;-75
2021/03/22 11:21:00;;;;;;;;;;;15.90;57.50;;;;;;5025402;28;19936;-74
2021/03/22 11:23:28;;;;;;;;;;;15.90;57.50;;;;;;5040937;28;20367;-75
2021/03/22 11:25:55;;;;;;;;;;;15.90;57.50;;;;;;5037714;28;19989;-75
2021/03/22 11:28:20;;;;;;;;;;;15.90;57.70;;;;;;5026861;28;20260;-75
2021/03/22 11:30:49;;;;;;;;;;;15.80;57.80;;;;;;5061100;28;19920;-77
2021/03/22 11:33:16;;;;;;;;;;;15.80;57.90;;;;;;5052369;28;19914;-75
2021/03/22 11:35:42;;;;;;;;;;;15.80;58.10;;;;;;5021726;28;19917;-74
2021/03/22 11:38:17;;;;;;;;;;;15.70;58.10;;;;;;5023376;28;20379;-76
2021/03/22 11:40:45;;;;;;;;;;;15.70;58.20;;;;;;5032040;28;19921;-75
2021/03/22 11:43:22;;;;;;;;;;;15.70;58.30;;;;;;5024058;28;19970;-75
2021/03/22 11:45:48;;;;;;;;;;;15.70;58.40;;;;;;5042892;28;19917;-75
2021/03/22 11:48:20;;;;;;;;;;;15.60;58.50;;;;;;5036260;28;19924;-75
2021/03/22 11:50:46;;;;;;;;;;;15.60;58.50;;;;;;5065037;28;19913;-74
2021/03/22 11:53:21;;;;;;;;;;;15.60;58.50;;;;;;5042688;28;20046;-74
2021/03/22 11:56:16;;;;;;;;;;;15.60;58.50;;;;;;5049028;28;19913;-75
2021/03/22 11:58:46;;;;;;;;;;;15.60;58.50;;;;;;5013908;28;20314;-75
2021/03/22 12:01:16;;;;;;;;;;;15.70;58.40;;;;;;5046082;28;19956;-74
2021/03/22 12:03:42;;;;;;;;;;;15.70;58.30;;;;;;5031908;28;19992;-75
2021/03/22 12:06:09;;;;;;;;;;;15.70;58.30;;;;;;5060443;28;20003;-76
2021/03/22 12:08:39;;;;;;;;;;;15.70;58.30;;;;;;5027370;28;20669;-75
2021/03/22 12:11:06;;;;;;;;;;;15.70;58.30;;;;;;5063766;28;20400;-74
2021/03/22 12:13:32;;;;;;;;;;;15.70;58.30;;;;;;5026488;28;19920;-76
2021/03/22 12:15:59;;;;;;;;;;;15.60;58.50;;;;;;5029292;28;19912;-74
2021/03/22 12:18:30;;;;;;;;;;;15.60;58.50;;;;;;5019761;28;19920;-75
2021/03/22 12:21:00;;;;;;;;;;;15.60;58.60;;;;;;5040302;28;19988;-74
2021/03/22 12:23:26;;;;;;;;;;;15.50;58.60;;;;;;5045914;28;19917;-75
2021/03/22 12:25:52;;;;;;;;;;;15.60;58.70;;;;;;5048689;28;19928;-75
2021/03/22 12:28:17;;;;;;;;;;;15.60;58.70;;;;;;5023866;28;19940;-74
2021/03/22 12:30:49;;;;;;;;;;;15.60;58.70;;;;;;5023411;28;19912;-74
2021/03/22 12:33:20;;;;;;;;;;;15.60;58.70;;;;;;5037651;28;19936;-74
2021/03/22 12:35:46;;;;;;;;;;;15.60;58.60;;;;;;5020921;28;19921;-75
2021/03/22 12:38:12;;;;;;;;;;;15.60;58.60;;;;;;5036212;28;20308;-74
2021/03/22 12:40:37;;;;;;;;;;;15.60;58.60;;;;;;5027316;28;20412;-75
2021/03/22 12:43:03;;;;;;;;;;;15.60;58.60;;;;;;5041116;28;19996;-75
2021/03/22 12:45:31;;;;;;;;;;;15.60;58.50;;;;;;5039694;28;19921;-74
2021/03/22 12:48:00;;;;;;;;;;;15.70;58.50;;;;;;5037086;28;19920;-75
2021/03/22 12:50:30;;;;;;;;;;;15.70;58.40;;;;;;5019209;28;20024;-74
2021/03/22 12:52:58;;;;;;;;;;;15.70;58.40;;;;;;5048207;28;19924;-74
2021/03/22 12:55:25;;;;;;;;;;;15.60;58.50;;;;;;5023226;28;19962;-75
2021/03/22 12:57:57;;;;;;;;;;;15.60;58.60;;;;;;5039565;28;19917;-74
2021/03/22 13:00:28;;;;;;;;;;;15.60;58.70;;;;;;5027844;28;19921;-74
2021/03/22 13:02:54;;;;;;;;;;;15.50;58.80;;;;;;5039415;28;19912;-74
2021/03/22 13:05:24;;;;;;;;;;;15.50;58.80;;;;;;5042618;28;19924;-74
2021/03/22 13:07:49;;;;;;;;;;;15.50;58.90;;;;;;5043217;28;19925;-74
2021/03/22 13:10:19;;;;;;;;;;;15.50;58.90;;;;;;5048691;28;19938;-73
2021/03/22 13:12:45;;;;;;;;;;;15.50;58.90;;;;;;5026143;28;19943;-74
2021/03/22 13:15:37;;;;;;;;;;;15.50;58.90;;;;;;5039410;28;20279;-75
2021/03/22 13:18:17;;;;;;;;;;;15.50;59.00;;;;;;5031666;28;20016;-75
2021/03/22 13:20:43;;;;;;;;;;;15.50;58.90;;;;;;5026628;28;19913;-76
2021/03/22 13:23:09;;;;;;;;;;;15.60;58.90;;;;;;5043455;28;19917;-74
2021/03/22 13:25:35;;;;;;;;;;;15.50;58.90;;;;;;5036187;28;19925;-75
2021/03/22 13:28:01;;;;;;;;;;;15.50;58.80;;;;;;5036038;28;19917;-74
2021/03/22 13:30:27;;;;;;;;;;;15.50;58.90;;;;;;5030058;28;19920;-74
2021/03/22 13:32:53;;;;;;;;;;;15.50;58.80;;;;;;5027701;28;20054;-76
2021/03/22 13:35:20;;;;;;;;;;;15.50;58.80;;;;;;5056851;28;19967;-76
2021/03/22 13:37:46;;;;;;;;;;;15.60;58.80;;;;;;5043216;28;19913;-74
2021/03/22 13:40:16;;;;;;;;;;;15.60;58.80;;;;;;5033214;28;19932;-76
2021/03/22 13:42:42;;;;;;;;;;;15.60;58.80;;;;;;5027596;28;19913;-74
2021/03/22 13:45:10;;;;;;;;;;;15.50;58.80;;;;;;5039186;28;19923;-74
2021/03/22 13:47:36;;;;;;;;;;;15.50;58.80;;;;;;5025107;28;19925;-74
2021/03/22 13:50:02;;;;;;;;;;;15.60;58.80;;;;;;5019554;28;20319;-73
2021/03/22 13:52:29;;;;;;;;;;;15.60;58.70;;;;;;5025593;28;19913;-73
2021/03/22 13:54:55;;;;;;;;;;;15.60;58.70;;;;;;5052075;28;19913;-73
2021/03/22 13:57:27;;;;;;;;;;;15.60;58.60;;;;;;5019020;28;19921;-75
2021/03/22 13:59:52;;;;;;;;;;;15.70;58.50;;;;;;5026280;28;19917;-73
2021/03/22 14:02:18;;;;;;;;;;;15.70;58.50;;;;;;5018956;28;19914;-74
2021/03/22 14:04:43;;;;;;;;;;;15.70;58.40;;;;;;5028599;28;20366;-73
2021/03/22 14:07:09;;;;;;;;;;;15.70;58.40;;;;;;5032024;28;19958;-74
2021/03/22 14:09:35;;;;;;;;;;;15.70;58.40;;;;;;5030333;28;20003;-74
2021/03/22 14:12:01;;;;;;;;;;;15.70;58.40;;;;;;5028756;28;19974;-73
2021/03/22 14:14:26;;;;;;;;;;;15.70;58.30;;;;;;5024213;28;20355;-74
2021/03/22 14:16:52;;;;;;;;;;;15.70;58.30;;;;;;5026684;28;19913;-75
2021/03/22 14:19:17;;;;;;;;;;;15.70;58.40;;;;;;5031790;28;19913;-74
2021/03/22 14:21:43;;;;;;;;;;;15.60;58.50;;;;;;5032095;28;20527;-74
2021/03/22 14:24:09;;;;;;;;;;;15.60;58.60;;;;;;5024139;28;20220;-75
2021/03/22 14:26:34;;;;;;;;;;;15.60;58.70;;;;;;5017815;28;19941;-74
2021/03/22 14:29:00;;;;;;;;;;;15.60;58.80;;;;;;5029753;28;20414;-74
2021/03/22 14:31:28;;;;;;;;;;;15.50;58.80;;;;;;5024075;28;20375;-75